Time;durP1;ratioP1;P1;durP2;ratioP2;P2;SDS_P1;SDS_P2;PMS_P1;PMS_P2;Temp;Humidity;BMP_temperature;BMP_pressure;BME280_temperature;BME280_humidity;BME280_pressure;Samples;Min_cycle;Max_cycle;Signal;HPM_P1;HPM_P2
2021/08/18 00:00:17;;;;;;;;;78.25;74.25;35.20;17.10;;;;;;658525;29;6667;-82
2021/08/18 00:00:43;;;;;;;;;78.60;73.00;35.20;16.90;;;;;;658526;29;6570;-84
2021/08/18 00:01:04;;;;;;;;;76.25;72.00;35.20;17.00;;;;;;658553;29;6676;-81
2021/08/18 00:01:25;;;;;;;;;78.00;73.00;35.20;16.90;;;;;;658838;29;6415;-82
2021/08/18 00:01:45;;;;;;;;;78.50;75.50;35.20;16.90;;;;;;658769;29;7024;-83
2021/08/18 00:02:06;;;;;;;;;74.80;69.20;35.20;16.90;;;;;;658681;29;6465;-81
2021/08/18 00:02:27;;;;;;;;;79.50;76.50;35.20;16.90;;;;;;658630;29;6465;-83
2021/08/18 00:02:48;;;;;;;;;75.50;67.75;35.20;17.00;;;;;;658496;29;7469;-80
2021/08/18 00:03:09;;;;;;;;;75.00;68.80;35.20;17.00;;;;;;658807;29;6524;-81
2021/08/18 00:03:31;;;;;;;;;78.00;71.00;35.20;16.90;;;;;;658968;29;6461;-83
2021/08/18 00:03:52;;;;;;;;;79.00;75.40;35.20;16.80;;;;;;658558;29;7151;-83
2021/08/18 00:04:13;;;;;;;;;95.00;88.00;35.20;16.90;;;;;;658910;29;6525;-90
2021/08/18 00:06:27;;;;;;;;;122.40;117.80;35.20;17.50;;;;;;660277;29;6922;-86
2021/08/18 00:06:47;;;;;;;;;120.25;117.25;35.20;17.30;;;;;;655923;29;7003;-85
2021/08/18 00:07:08;;;;;;;;;107.00;104.20;35.20;17.60;;;;;;659359;29;6593;-82
2021/08/18 00:07:29;;;;;;;;;137.60;134.40;35.20;17.60;;;;;;658777;29;6525;-84
2021/08/18 00:08:12;;;;;;;;;161.00;154.40;35.20;17.60;;;;;;659382;29;6491;-84
2021/08/18 00:08:33;;;;;;;;;167.00;158.75;35.20;17.30;;;;;;658564;29;7341;-85
2021/08/18 00:08:53;;;;;;;;;173.75;164.50;35.20;17.40;;;;;;658651;29;6547;-83
2021/08/18 00:09:16;;;;;;;;;178.50;169.50;35.20;17.30;;;;;;658587;29;6538;-82
2021/08/18 00:09:37;;;;;;;;;190.00;184.00;35.20;17.30;;;;;;656488;29;6912;-81
2021/08/18 00:09:59;;;;;;;;;215.80;209.80;35.20;17.30;;;;;;656372;29;6560;-79
2021/08/18 00:10:20;;;;;;;;;232.00;219.50;35.20;17.30;;;;;;658803;29;7047;-80
2021/08/18 00:10:44;;;;;;;;;219.50;213.00;35.20;17.20;;;;;;659030;29;6629;-80
2021/08/18 00:11:05;;;;;;;;;211.20;203.40;35.20;17.20;;;;;;658665;29;6981;-81
2021/08/18 00:16:38;;;;;;;;;;;;;;;;;;;;;
2021/08/18 00:33:27;;;;;;;;;71.75;62.75;34.90;17.30;;;;;;750483;22;6213;-85
2021/08/18 00:33:48;;;;;;;;;72.20;62.20;34.90;17.40;;;;;;690112;28;6200;-87
2021/08/18 00:34:09;;;;;;;;;70.20;60.20;34.90;17.40;;;;;;689553;28;6735;-83
2021/08/18 00:34:30;;;;;;;;;69.50;57.00;34.90;17.40;;;;;;689551;28;6076;-82
2021/08/18 00:34:50;;;;;;;;;66.00;55.00;34.90;17.30;;;;;;690016;28;5959;-84
2021/08/18 00:35:11;;;;;;;;;68.00;55.25;34.90;17.60;;;;;;689901;28;6397;-81
2021/08/18 00:35:32;;;;;;;;;64.00;52.60;34.90;17.40;;;;;;689154;28;6714;-82
2021/08/18 00:35:52;;;;;;;;;64.75;52.75;34.90;17.30;;;;;;690181;28;6035;-81
2021/08/18 00:36:14;;;;;;;;;63.00;51.00;34.90;17.40;;;;;;689805;28;5938;-82
2021/08/18 00:36:34;;;;;;;;;61.00;50.00;34.90;17.40;;;;;;689424;28;6782;-82
2021/08/18 00:36:55;;;;;;;;;62.25;51.00;34.90;17.60;;;;;;689562;28;6609;-82
2021/08/18 00:37:16;;;;;;;;;62.00;51.00;34.90;17.40;;;;;;689493;28;6915;-85
2021/08/18 00:38:10;;;;;;;;;;;;;;;;;;;;;
2021/08/18 00:53:26;;;;;;;;;37.40;34.00;35.10;17.50;;;;;;686167;28;7191;-80
2021/08/18 00:53:47;;;;;;;;;39.00;34.25;35.10;17.50;;;;;;685729;28;5671;-83
2021/08/18 00:54:07;;;;;;;;;43.40;36.00;35.20;17.70;;;;;;685439;28;6100;-80
2021/08/18 00:54:32;;;;;;;;;38.40;34.40;35.20;17.70;;;;;;685236;28;6152;-82
2021/08/18 00:54:52;;;;;;;;;42.20;34.60;35.20;17.60;;;;;;685986;28;6189;-83
2021/08/18 00:55:19;;;;;;;;;39.00;33.00;35.20;17.50;;;;;;687059;28;6116;-83
2021/08/18 00:55:41;;;;;;;;;33.00;32.00;35.20;17.60;;;;;;686347;28;6523;-82
2021/08/18 00:56:02;;;;;;;;;35.50;32.25;35.20;17.60;;;;;;687242;28;6102;-80
2021/08/18 00:56:26;;;;;;;;;36.60;32.80;35.20;17.60;;;;;;686569;28;6080;-84
2021/08/18 00:56:47;;;;;;;;;37.60;34.00;35.20;17.60;;;;;;683481;28;8635;-84
2021/08/18 00:57:10;;;;;;;;;40.25;35.50;35.20;17.40;;;;;;684133;28;6173;-84
2021/08/18 00:57:31;;;;;;;;;43.60;38.20;35.20;17.40;;;;;;684339;28;6587;-86
2021/08/18 00:57:54;;;;;;;;;36.00;33.00;35.20;17.50;;;;;;683837;28;6322;-79
2021/08/18 00:58:15;;;;;;;;;42.00;35.60;35.20;17.40;;;;;;685429;28;6506;-83
2021/08/18 00:58:36;;;;;;;;;33.75;31.25;35.20;17.40;;;;;;686810;28;5923;-81
2021/08/18 00:58:58;;;;;;;;;39.00;34.80;35.20;17.40;;;;;;686561;28;6030;-83
2021/08/18 00:59:21;;;;;;;;;40.40;35.60;35.20;17.50;;;;;;686181;28;6379;-80
2021/08/18 00:59:42;;;;;;;;;42.00;35.75;35.30;17.50;;;;;;686339;28;6157;-81
2021/08/18 01:00:05;;;;;;;;;41.00;36.00;35.20;17.40;;;;;;687229;28;6084;-81
2021/08/18 01:00:28;;;;;;;;;39.00;34.00;35.30;17.40;;;;;;687012;28;8205;-81
2021/08/18 01:00:48;;;;;;;;;36.60;33.00;35.30;17.30;;;;;;686911;28;6213;-83
2021/08/18 01:01:09;;;;;;;;;37.00;33.00;35.30;17.30;;;;;;687112;28;6061;-80
2021/08/18 01:01:31;;;;;;;;;39.25;34.00;35.30;17.30;;;;;;686763;28;6638;-82
2021/08/18 01:01:52;;;;;;;;;39.50;34.75;35.30;17.30;;;;;;684835;28;8467;-85
2021/08/18 01:02:13;;;;;;;;;34.75;32.00;35.30;17.30;;;;;;684995;28;6210;-81
2021/08/18 01:23:16;;;;;;;;;20.40;18.40;35.30;17.30;;;;;;664744;22;6687;-82
2021/08/18 01:23:39;;;;;;;;;23.00;20.00;35.30;17.50;;;;;;689983;28;5929;-85
2021/08/18 01:24:02;;;;;;;;;20.80;19.80;35.40;17.40;;;;;;688821;28;8865;-83
2021/08/18 01:24:22;;;;;;;;;20.60;20.60;35.40;17.40;;;;;;691182;28;8400;-82
2021/08/18 01:24:43;;;;;;;;;17.25;17.25;35.30;17.30;;;;;;692408;28;5697;-83
2021/08/18 01:25:06;;;;;;;;;20.00;18.75;35.30;17.30;;;;;;692575;28;5855;-81
2021/08/18 01:25:27;;;;;;;;;19.00;19.00;35.30;17.30;;;;;;692462;28;7437;-79
2021/08/18 01:25:48;;;;;;;;;20.00;20.00;35.40;17.30;;;;;;692741;28;6890;-80
2021/08/18 01:26:09;;;;;;;;;20.50;20.00;35.40;17.40;;;;;;691779;28;6119;-82
2021/08/18 01:30:05;;;;;;;;;42.00;36.00;35.40;17.60;;;;;;611167;26;6307;-80
2021/08/18 01:30:27;;;;;;;;;45.00;38.00;35.40;17.60;;;;;;686509;28;5815;-82
2021/08/18 01:30:48;;;;;;;;;42.00;36.00;35.40;17.40;;;;;;686415;28;6182;-82
2021/08/18 01:31:09;;;;;;;;;45.00;37.80;35.40;17.40;;;;;;687167;28;6063;-83
2021/08/18 01:31:30;;;;;;;;;45.00;38.00;35.40;17.40;;;;;;686861;28;6910;-80
2021/08/18 01:31:58;;;;;;;;;49.50;42.50;35.40;17.40;;;;;;687535;28;6457;-82
2021/08/18 01:41:30;;;;;;;;;32.40;30.60;35.40;17.40;;;;;;634168;22;6255;-83
2021/08/18 01:41:51;;;;;;;;;33.00;31.00;35.40;17.40;;;;;;686933;28;6118;-82
2021/08/18 01:42:11;;;;;;;;;32.25;29.75;35.40;17.30;;;;;;684123;28;6473;-85
2021/08/18 01:42:32;;;;;;;;;30.50;29.50;35.40;17.30;;;;;;684761;28;6052;-83
2021/08/18 01:42:53;;;;;;;;;26.20;26.20;35.40;17.30;;;;;;684704;28;6834;-83
2021/08/18 01:43:14;;;;;;;;;29.20;29.00;35.40;17.30;;;;;;684270;28;6012;-83
2021/08/18 01:43:35;;;;;;;;;27.80;26.80;35.40;17.40;;;;;;684425;28;6570;-84
2021/08/18 01:43:56;;;;;;;;;25.75;23.00;35.40;17.40;;;;;;684588;28;6033;-86
2021/08/18 01:44:27;;;;;;;;;23.75;23.00;35.40;17.40;;;;;;686333;28;5943;-87
2021/08/18 01:45:39;;;;;;;;;27.00;26.50;35.40;17.30;;;;;;678636;28;7237;-84
2021/08/18 01:46:06;;;;;;;;;25.80;25.00;35.40;17.30;;;;;;675521;29;6583;-85
2021/08/18 01:46:27;;;;;;;;;25.40;25.40;35.40;17.30;;;;;;673403;29;7467;-82
2021/08/18 01:46:50;;;;;;;;;24.00;24.00;35.40;17.30;;;;;;673450;29;6041;-82
2021/08/18 01:47:14;;;;;;;;;24.60;21.60;35.40;17.30;;;;;;670096;29;8997;-85
2021/08/18 01:47:35;;;;;;;;;27.20;25.40;35.40;17.30;;;;;;673001;29;8560;-84
2021/08/18 01:47:56;;;;;;;;;20.75;20.75;35.40;17.30;;;;;;673097;29;6850;-84
2021/08/18 01:48:35;;;;;;;;;;;;;;;;;;;;;
2021/08/18 01:53:00;;;;;;;;;16.40;16.40;35.40;17.00;;;;;;734295;22;7707;-84
2021/08/18 01:53:30;;;;;;;;;16.00;15.75;35.40;17.10;;;;;;689839;28;6714;-85
2021/08/18 01:53:50;;;;;;;;;17.25;17.00;35.40;17.10;;;;;;691216;28;6075;-85
2021/08/18 01:54:13;;;;;;;;;18.20;17.20;35.30;17.00;;;;;;690862;28;6057;-85
2021/08/18 01:54:39;;;;;;;;;15.60;15.60;35.30;17.00;;;;;;691607;28;7483;-82
2021/08/18 01:55:00;;;;;;;;;17.00;16.60;35.30;17.00;;;;;;691992;28;6141;-84
2021/08/18 01:55:24;;;;;;;;;17.60;17.40;35.30;17.00;;;;;;694030;28;6175;-83
2021/08/18 01:55:45;;;;;;;;;21.50;21.00;35.30;17.10;;;;;;692506;28;6306;-86
2021/08/18 01:56:07;;;;;;;;;19.00;18.50;35.30;17.10;;;;;;689145;28;6226;-83
2021/08/18 01:56:27;;;;;;;;;17.40;16.40;35.30;17.10;;;;;;689391;28;6882;-81
2021/08/18 01:56:48;;;;;;;;;16.00;15.00;35.30;17.00;;;;;;688969;28;6389;-85
2021/08/18 01:57:09;;;;;;;;;18.75;17.75;35.20;17.00;;;;;;688545;28;6039;-83
2021/08/18 01:57:30;;;;;;;;;16.60;16.60;35.20;17.00;;;;;;689439;28;6375;-83
2021/08/18 02:03:04;;;;;;;;;13.25;13.25;35.20;17.90;;;;;;768524;22;6240;-86
2021/08/18 02:03:24;;;;;;;;;13.80;13.80;35.10;17.80;;;;;;686545;28;6065;-85
2021/08/18 02:03:45;;;;;;;;;15.75;15.75;35.10;17.80;;;;;;687163;28;6193;-84
2021/08/18 02:04:06;;;;;;;;;22.00;21.60;35.10;18.10;;;;;;687026;28;6251;-86
2021/08/18 02:04:26;;;;;;;;;19.40;19.40;35.10;17.90;;;;;;687629;28;6189;-86
2021/08/18 02:04:47;;;;;;;;;20.00;20.00;35.10;18.60;;;;;;687522;28;6140;-84
2021/08/18 02:11:15;;;;;;;;;;;;;;;;;;;;;
2021/08/18 02:12:38;;;;;;;;;;;;;;;;;;;;;
2021/08/18 02:34:43;;;;;;;;;5.00;5.00;34.80;18.20;;;;;;694067;22;6620;-83
2021/08/18 02:35:05;;;;;;;;;5.00;4.20;34.80;18.10;;;;;;687218;28;6023;-82
2021/08/18 02:35:26;;;;;;;;;4.00;4.00;34.80;18.00;;;;;;686668;28;7259;-83
2021/08/18 02:35:47;;;;;;;;;4.50;3.50;34.70;18.00;;;;;;687103;28;5901;-83
2021/08/18 02:36:08;;;;;;;;;4.00;3.50;34.70;18.00;;;;;;687372;28;6089;-82
2021/08/18 02:36:29;;;;;;;;;5.00;4.00;34.80;18.20;;;;;;687726;28;6110;-84
2021/08/18 02:36:49;;;;;;;;;6.00;5.00;34.80;18.00;;;;;;687056;28;5946;-83
2021/08/18 02:37:10;;;;;;;;;4.00;4.00;34.80;18.20;;;;;;687254;28;6055;-84
2021/08/18 02:37:31;;;;;;;;;4.50;3.75;34.80;18.10;;;;;;687452;28;6124;-83
2021/08/18 02:37:53;;;;;;;;;5.00;4.00;34.80;18.20;;;;;;687448;28;5979;-83
2021/08/18 02:38:55;;;;;;;;;5.25;5.00;34.80;18.10;;;;;;687126;28;6672;-85
2021/08/18 02:43:34;;;;;;;;;4.00;4.00;34.90;18.10;;;;;;676850;29;6047;-85
2021/08/18 02:58:23;;;;;;;;;5.60;3.60;34.90;19.30;;;;;;662448;29;6712;-82
2021/08/18 02:58:44;;;;;;;;;3.00;3.00;34.80;19.20;;;;;;662911;29;5956;-83
2021/08/18 02:59:05;;;;;;;;;4.00;4.00;34.80;19.20;;;;;;663006;29;6022;-83
2021/08/18 02:59:25;;;;;;;;;5.00;4.00;34.80;19.30;;;;;;662895;29;6010;-85
2021/08/18 02:59:46;;;;;;;;;4.00;3.50;34.80;19.40;;;;;;662921;29;6731;-86
2021/08/18 03:00:08;;;;;;;;;5.00;5.00;34.80;19.50;;;;;;662719;29;6216;-84
2021/08/18 03:13:50;;;;;;;;;5.00;3.00;34.90;19.50;;;;;;648147;30;7077;-83
2021/08/18 03:14:57;;;;;;;;;4.00;4.00;34.90;19.60;;;;;;648345;30;6853;-84
2021/08/18 03:15:18;;;;;;;;;4.60;4.00;35.00;19.60;;;;;;648435;30;6621;-83
2021/08/18 03:15:38;;;;;;;;;5.00;5.00;34.90;19.60;;;;;;648084;30;6989;-84
2021/08/18 03:15:59;;;;;;;;;4.00;4.00;34.90;19.60;;;;;;646224;30;6191;-84
2021/08/18 03:25:59;;;;;;;;;4.40;3.60;35.00;19.80;;;;;;645590;30;7000;-81
2021/08/18 03:26:20;;;;;;;;;3.00;3.00;35.00;19.70;;;;;;645488;30;7313;-82
2021/08/18 03:26:41;;;;;;;;;5.00;5.00;35.00;19.60;;;;;;645656;30;6425;-83
2021/08/18 03:27:01;;;;;;;;;4.00;4.00;35.00;19.70;;;;;;645557;30;6554;-82
2021/08/18 03:27:23;;;;;;;;;3.60;3.60;35.00;19.70;;;;;;645485;30;6419;-82
2021/08/18 03:27:43;;;;;;;;;4.00;4.00;35.00;19.70;;;;;;645992;30;6455;-84
2021/08/18 03:28:04;;;;;;;;;4.00;4.00;35.00;19.70;;;;;;648118;30;6374;-83
2021/08/18 03:28:25;;;;;;;;;4.00;4.00;35.00;19.70;;;;;;648125;30;6294;-83
2021/08/18 03:28:46;;;;;;;;;5.00;5.00;35.00;19.60;;;;;;648041;30;6303;-84
2021/08/18 03:29:06;;;;;;;;;5.50;5.00;35.00;19.60;;;;;;647980;30;6335;-83
2021/08/18 03:29:28;;;;;;;;;3.20;3.20;35.00;19.60;;;;;;647918;30;6269;-82
2021/08/18 03:35:11;;;;;;;;;3.00;3.00;35.10;19.60;;;;;;651411;30;6453;-83
2021/08/18 03:35:32;;;;;;;;;3.00;3.00;35.10;19.70;;;;;;652628;30;6897;-83
2021/08/18 03:35:53;;;;;;;;;4.60;4.60;35.10;19.70;;;;;;652788;30;7082;-82
2021/08/18 03:36:14;;;;;;;;;5.80;5.00;35.10;19.70;;;;;;652684;30;6302;-84
2021/08/18 03:36:34;;;;;;;;;4.00;4.00;35.10;19.70;;;;;;653022;30;6270;-83
2021/08/18 03:36:55;;;;;;;;;4.00;4.00;35.10;19.70;;;;;;652974;30;6235;-83
2021/08/18 03:37:16;;;;;;;;;3.00;3.00;35.10;19.70;;;;;;652767;30;6244;-85
2021/08/18 03:37:36;;;;;;;;;2.50;2.50;35.20;19.70;;;;;;652720;30;6290;-82
2021/08/18 03:37:57;;;;;;;;;3.00;3.00;35.20;19.70;;;;;;652646;30;6282;-83
2021/08/18 03:57:47;;;;;;;;;2.00;2.00;35.20;19.80;;;;;;705134;27;13431;-83
2021/08/18 03:58:08;;;;;;;;;2.50;2.50;35.30;19.60;;;;;;702050;28;6032;-83
2021/08/18 03:58:29;;;;;;;;;3.75;3.00;35.30;19.50;;;;;;699454;28;6102;-83
2021/08/18 03:58:49;;;;;;;;;4.00;3.00;35.30;19.60;;;;;;695926;28;5846;-83
2021/08/18 03:59:11;;;;;;;;;2.60;2.60;35.30;19.50;;;;;;696424;28;5918;-82
2021/08/18 03:59:32;;;;;;;;;3.20;3.00;35.30;19.50;;;;;;696497;28;6321;-83
2021/08/18 03:59:53;;;;;;;;;4.00;3.50;35.30;19.60;;;;;;697232;28;6427;-82
2021/08/18 04:00:14;;;;;;;;;4.50;4.50;35.30;19.60;;;;;;699874;28;5881;-82
2021/08/18 04:00:35;;;;;;;;;3.20;3.20;35.30;19.50;;;;;;702259;28;6046;-82
2021/08/18 04:00:55;;;;;;;;;2.00;2.00;35.30;19.80;;;;;;703104;27;5463;-84
2021/08/18 04:01:16;;;;;;;;;3.50;3.50;35.30;19.50;;;;;;705233;27;5980;-84
2021/08/18 04:02:54;;;;;;;;;;;;;;;;;;;;;
2021/08/18 04:29:53;;;;;;;;;;;;;;;;;;;;;
2021/08/18 04:36:25;;;;;;;;;4.00;4.00;35.10;20.40;;;;;;649970;30;6235;-81
2021/08/18 04:36:46;;;;;;;;;5.00;4.00;35.00;20.50;;;;;;649747;30;6608;-82
2021/08/18 04:37:08;;;;;;;;;3.25;2.25;35.00;20.40;;;;;;649848;30;6123;-81
2021/08/18 04:37:28;;;;;;;;;3.00;3.00;35.00;20.40;;;;;;649805;30;7095;-81
2021/08/18 04:38:09;;;;;;;;;3.80;3.80;35.00;20.40;;;;;;649914;30;6183;-81
2021/08/18 04:38:30;;;;;;;;;4.00;4.00;35.10;20.50;;;;;;649678;30;6469;-81
2021/08/18 04:38:50;;;;;;;;;3.60;3.60;35.10;20.40;;;;;;650784;30;6083;-80
2021/08/18 04:39:11;;;;;;;;;2.20;2.20;35.10;20.50;;;;;;652275;30;5979;-80
2021/08/18 04:40:48;;;;;;;;;3.00;3.00;35.10;20.40;;;;;;649863;30;6291;-81
2021/08/18 04:41:09;;;;;;;;;3.00;2.00;35.10;20.40;;;;;;656438;30;7460;-81
2021/08/18 04:41:30;;;;;;;;;3.50;3.00;35.10;20.50;;;;;;657174;30;6067;-82
2021/08/18 04:41:51;;;;;;;;;3.00;3.00;35.10;20.40;;;;;;657206;30;6102;-80
2021/08/18 04:42:23;;;;;;;;;2.40;2.40;35.10;20.50;;;;;;654680;30;6681;-81
2021/08/18 04:42:46;;;;;;;;;3.40;3.40;35.10;20.40;;;;;;653948;30;6477;-80
2021/08/18 04:43:10;;;;;;;;;4.00;4.00;35.10;20.40;;;;;;654540;30;7093;-81
2021/08/18 04:43:31;;;;;;;;;3.50;3.50;35.10;20.40;;;;;;654733;30;6234;-82
2021/08/18 04:43:51;;;;;;;;;4.00;4.00;35.10;20.40;;;;;;654687;30;6131;-80
2021/08/18 04:44:32;;;;;;;;;2.60;2.60;35.10;20.40;;;;;;657066;30;6051;-80
2021/08/18 04:50:47;;;;;;;;;3.00;3.00;35.10;20.60;;;;;;644934;30;6306;-82
2021/08/18 04:51:08;;;;;;;;;4.00;4.00;35.10;20.60;;;;;;644318;30;6749;-82
2021/08/18 04:51:29;;;;;;;;;3.00;3.00;35.10;20.60;;;;;;644661;30;6037;-81
2021/08/18 04:51:49;;;;;;;;;3.00;3.00;35.10;21.40;;;;;;644800;30;6235;-82
2021/08/18 04:52:10;;;;;;;;;2.75;2.75;35.10;20.60;;;;;;644981;30;6684;-82
2021/08/18 04:52:31;;;;;;;;;3.50;2.50;35.10;20.60;;;;;;645059;30;6058;-82
2021/08/18 04:52:52;;;;;;;;;6.00;4.00;35.10;20.60;;;;;;642899;30;8780;-82
2021/08/18 04:53:13;;;;;;;;;3.40;3.00;35.10;20.50;;;;;;642517;30;6071;-82
2021/08/18 04:53:47;;;;;;;;;3.25;3.00;35.10;20.60;;;;;;642500;30;6046;-82
2021/08/18 04:54:35;;;;;;;;;3.25;2.25;35.10;20.60;;;;;;644584;30;7115;-81
2021/08/18 04:54:56;;;;;;;;;4.00;3.00;35.10;20.50;;;;;;645113;30;6293;-81
2021/08/18 04:55:17;;;;;;;;;4.00;3.00;35.10;20.60;;;;;;644866;30;6207;-82
2021/08/18 04:55:39;;;;;;;;;4.00;3.00;35.10;20.60;;;;;;644869;30;6038;-82
2021/08/18 04:56:00;;;;;;;;;4.20;4.00;35.10;20.60;;;;;;644925;30;6281;-82
2021/08/18 06:05:15;;;;;;;;;2.75;2.75;34.90;21.00;;;;;;672843;23;6554;-79
2021/08/18 06:05:36;;;;;;;;;2.25;2.25;34.90;21.00;;;;;;672391;29;5951;-81
2021/08/18 06:05:57;;;;;;;;;3.50;3.00;34.90;21.00;;;;;;671535;29;5988;-81
2021/08/18 07:01:23;;;;;;;;;4.00;4.00;35.20;20.90;;;;;;788954;22;1572448;-80
2021/08/18 07:01:44;;;;;;;;;4.00;4.00;35.20;21.00;;;;;;850343;23;6114;-80
2021/08/18 07:02:05;;;;;;;;;4.00;4.00;35.20;21.00;;;;;;851168;23;5920;-80
2021/08/18 07:02:26;;;;;;;;;3.60;3.60;35.20;20.90;;;;;;851315;23;6025;-80
2021/08/18 07:02:51;;;;;;;;;5.00;3.50;35.20;21.00;;;;;;851267;23;5866;-80
2021/08/18 07:03:11;;;;;;;;;4.00;3.00;35.20;20.90;;;;;;851125;23;6205;-80
2021/08/18 07:03:50;;;;;;;;;4.60;3.60;35.20;20.90;;;;;;852675;23;5893;-80
2021/08/18 07:22:40;;;;;;;;;5.00;5.00;35.00;21.30;;;;;;845421;22;8672;-80
2021/08/18 07:23:01;;;;;;;;;3.60;2.60;35.00;21.20;;;;;;855735;23;5888;-82
2021/08/18 07:23:23;;;;;;;;;6.00;5.00;35.10;21.30;;;;;;855670;23;5887;-81
2021/08/18 07:23:43;;;;;;;;;6.00;5.00;35.00;21.10;;;;;;855426;23;6571;-81
2021/08/18 07:24:04;;;;;;;;;3.50;3.50;35.00;21.20;;;;;;855623;23;5903;-81
2021/08/18 07:24:26;;;;;;;;;3.00;3.00;35.00;21.10;;;;;;855753;23;6012;-80
2021/08/18 07:24:47;;;;;;;;;4.00;4.00;35.10;21.30;;;;;;855415;23;6362;-81
2021/08/18 07:25:08;;;;;;;;;4.25;4.25;35.00;21.20;;;;;;855567;23;5842;-82
2021/08/18 07:25:29;;;;;;;;;3.40;3.40;35.00;21.30;;;;;;855538;23;7843;-81
2021/08/18 07:25:50;;;;;;;;;3.80;3.80;35.10;22.20;;;;;;855734;23;6553;-81
2021/08/18 07:26:11;;;;;;;;;4.20;4.20;35.00;21.20;;;;;;855410;23;5826;-81
2021/08/18 07:26:31;;;;;;;;;2.00;2.00;35.00;21.10;;;;;;855478;23;6614;-81
2021/08/18 07:26:52;;;;;;;;;4.50;3.50;35.10;21.20;;;;;;855665;23;5986;-81
2021/08/18 07:27:13;;;;;;;;;4.20;4.20;35.10;21.20;;;;;;851020;23;5945;-81
2021/08/18 07:27:34;;;;;;;;;4.00;4.00;35.10;21.20;;;;;;851237;23;5955;-81
2021/08/18 07:27:54;;;;;;;;;3.00;3.00;35.10;21.30;;;;;;851328;23;5883;-81
2021/08/18 07:28:15;;;;;;;;;3.00;3.00;35.00;21.10;;;;;;851243;23;6040;-81
2021/08/18 07:28:36;;;;;;;;;3.50;3.00;35.10;21.20;;;;;;846998;23;5173;-82
2021/08/18 07:28:58;;;;;;;;;4.00;4.00;35.10;21.20;;;;;;847300;23;5946;-82
2021/08/18 07:29:19;;;;;;;;;5.00;3.00;35.00;21.10;;;;;;847152;23;7134;-81
2021/08/18 07:29:40;;;;;;;;;5.00;4.00;35.10;21.20;;;;;;842404;23;6196;-81
2021/08/18 07:30:01;;;;;;;;;3.25;3.25;35.10;21.20;;;;;;843014;23;6765;-81
2021/08/18 07:30:21;;;;;;;;;5.00;4.00;35.10;21.20;;;;;;843167;23;6476;-81
2021/08/18 07:30:42;;;;;;;;;5.00;4.00;35.10;21.20;;;;;;838213;23;6566;-81
2021/08/18 07:31:03;;;;;;;;;4.00;4.00;35.10;21.20;;;;;;839314;23;6045;-81
2021/08/18 07:31:25;;;;;;;;;4.00;4.00;35.10;21.20;;;;;;843673;23;5990;-81
2021/08/18 07:31:46;;;;;;;;;4.40;4.20;35.10;21.20;;;;;;846912;23;6493;-81
2021/08/18 07:32:07;;;;;;;;;4.75;4.50;35.10;21.20;;;;;;847075;23;5755;-80
2021/08/18 07:32:27;;;;;;;;;5.80;5.80;35.10;21.20;;;;;;847313;23;5857;-81
2021/08/18 07:32:49;;;;;;;;;4.25;4.25;35.10;21.20;;;;;;847555;23;5890;-81
2021/08/18 07:33:10;;;;;;;;;3.00;3.00;35.10;21.20;;;;;;851143;23;6331;-81
2021/08/18 07:33:30;;;;;;;;;3.50;3.50;35.10;21.20;;;;;;851334;23;6571;-81
2021/08/18 07:33:51;;;;;;;;;3.80;3.80;35.10;21.20;;;;;;851531;23;5811;-80
2021/08/18 07:34:12;;;;;;;;;3.00;3.00;35.10;21.20;;;;;;851428;23;5818;-80
2021/08/18 07:34:33;;;;;;;;;6.00;4.00;35.20;21.20;;;;;;851375;23;6011;-81
2021/08/18 07:34:54;;;;;;;;;3.20;3.20;35.10;21.10;;;;;;847074;23;6296;-81
2021/08/18 07:35:15;;;;;;;;;4.00;4.00;35.20;21.20;;;;;;846885;23;5761;-81
2021/08/18 07:35:36;;;;;;;;;4.80;4.80;35.20;21.20;;;;;;846996;23;5859;-81
2021/08/18 07:35:56;;;;;;;;;6.00;5.00;35.20;21.10;;;;;;847101;23;5987;-82
2021/08/18 07:36:17;;;;;;;;;5.00;5.00;35.20;21.20;;;;;;847146;23;6768;-82
2021/08/18 07:36:38;;;;;;;;;3.40;3.40;35.20;21.20;;;;;;848111;23;5845;-80
2021/08/18 07:36:59;;;;;;;;;5.50;5.00;35.10;21.10;;;;;;851477;23;6048;-81
2021/08/18 07:37:22;;;;;;;;;4.40;4.00;35.20;21.20;;;;;;851388;23;5910;-81
2021/08/18 07:37:42;;;;;;;;;5.00;4.60;35.20;21.20;;;;;;851429;23;6332;-81
2021/08/18 07:38:03;;;;;;;;;4.00;4.00;35.20;21.20;;;;;;851359;23;6607;-82
2021/08/18 07:38:24;;;;;;;;;5.00;5.00;35.20;21.10;;;;;;851736;23;5827;-81
2021/08/18 07:38:45;;;;;;;;;3.50;3.50;35.20;21.20;;;;;;851544;23;5836;-81
2021/08/18 07:39:06;;;;;;;;;4.40;4.40;35.20;21.20;;;;;;851091;23;6100;-81
2021/08/18 07:39:26;;;;;;;;;4.00;4.00;35.20;21.30;;;;;;851584;23;5975;-81
2021/08/18 07:39:47;;;;;;;;;4.00;4.00;35.20;21.20;;;;;;851371;23;5777;-82
2021/08/18 07:40:08;;;;;;;;;3.25;3.25;35.10;21.20;;;;;;850214;23;5759;-81
2021/08/18 07:40:29;;;;;;;;;4.00;4.00;35.20;21.20;;;;;;850564;23;5756;-82
2021/08/18 07:40:49;;;;;;;;;5.00;4.00;35.20;21.20;;;;;;850512;23;5854;-81
2021/08/18 07:41:10;;;;;;;;;4.50;4.50;35.10;21.10;;;;;;850526;23;5812;-81
2021/08/18 07:41:31;;;;;;;;;4.00;4.00;35.10;21.20;;;;;;850483;23;5911;-81
2021/08/18 07:41:52;;;;;;;;;4.60;4.00;35.20;21.20;;;;;;850765;23;5831;-81
2021/08/18 07:42:13;;;;;;;;;4.00;4.00;35.10;21.10;;;;;;850513;23;5844;-81
2021/08/18 07:42:34;;;;;;;;;3.20;3.20;35.20;21.20;;;;;;850501;23;6088;-80
2021/08/18 07:42:56;;;;;;;;;4.00;4.00;35.20;21.20;;;;;;849762;23;6526;-81
2021/08/18 07:43:17;;;;;;;;;4.00;4.00;35.20;21.20;;;;;;850370;23;6368;-80
2021/08/18 07:43:37;;;;;;;;;4.00;4.00;35.10;21.20;;;;;;850318;23;5936;-81
2021/08/18 07:43:58;;;;;;;;;5.20;5.00;35.20;21.20;;;;;;850300;23;6463;-81
2021/08/18 07:44:19;;;;;;;;;5.80;5.00;35.20;21.20;;;;;;848802;23;5949;-81
2021/08/18 07:44:40;;;;;;;;;4.00;4.00;35.20;21.20;;;;;;849819;23;5845;-80
2021/08/18 07:45:02;;;;;;;;;3.00;3.00;35.20;21.20;;;;;;846072;23;6590;-81
2021/08/18 07:45:23;;;;;;;;;3.00;3.00;35.20;21.20;;;;;;846287;23;6793;-80
2021/08/18 07:45:44;;;;;;;;;4.50;4.50;35.20;21.20;;;;;;846147;23;5991;-81
2021/08/18 07:46:04;;;;;;;;;5.00;5.00;35.20;21.20;;;;;;842001;23;5901;-81
2021/08/18 07:46:25;;;;;;;;;6.00;5.00;35.20;21.20;;;;;;846555;23;5834;-80
2021/08/18 07:46:46;;;;;;;;;3.75;3.75;35.10;21.20;;;;;;847024;23;6464;-81
2021/08/18 07:47:07;;;;;;;;;4.00;4.00;35.10;21.20;;;;;;846871;23;5811;-81
2021/08/18 07:47:27;;;;;;;;;3.00;3.00;35.20;21.20;;;;;;847501;23;6121;-81
2021/08/18 07:47:48;;;;;;;;;5.00;4.00;35.10;21.20;;;;;;844008;23;5995;-81
2021/08/18 07:48:09;;;;;;;;;5.00;5.00;35.20;21.20;;;;;;846760;23;5950;-81
2021/08/18 07:48:31;;;;;;;;;4.80;4.80;35.20;21.20;;;;;;848338;23;5824;-81
2021/08/18 07:48:51;;;;;;;;;5.00;5.00;35.20;21.20;;;;;;848226;23;6508;-81
2021/08/18 07:49:13;;;;;;;;;6.00;6.00;35.20;21.20;;;;;;848564;23;5876;-80
2021/08/18 07:49:33;;;;;;;;;5.00;5.00;35.20;21.20;;;;;;844606;23;6382;-81
2021/08/18 07:49:54;;;;;;;;;5.00;4.00;35.20;21.20;;;;;;848339;23;5857;-80
2021/08/18 07:50:15;;;;;;;;;4.00;4.00;35.20;21.20;;;;;;844369;23;5958;-80
2021/08/18 07:50:36;;;;;;;;;4.00;4.00;35.20;22.10;;;;;;845430;23;5849;-82
2021/08/18 07:50:57;;;;;;;;;4.00;4.00;35.20;21.20;;;;;;848252;23;5944;-81
2021/08/18 07:51:17;;;;;;;;;5.00;4.20;35.20;21.20;;;;;;848686;23;5914;-81
2021/08/18 07:51:38;;;;;;;;;4.75;4.25;35.20;21.20;;;;;;848782;23;5768;-81
2021/08/18 07:51:59;;;;;;;;;4.00;4.00;35.20;21.30;;;;;;844648;23;5864;-80
2021/08/18 07:52:20;;;;;;;;;4.00;4.00;35.20;21.40;;;;;;844580;23;5947;-81
2021/08/18 07:52:43;;;;;;;;;4.40;4.40;35.20;21.30;;;;;;844440;23;5950;-80
2021/08/18 07:53:07;;;;;;;;;5.00;5.00;35.20;21.30;;;;;;845272;23;6259;-81
2021/08/18 07:53:28;;;;;;;;;4.00;3.50;35.20;21.40;;;;;;848071;23;6272;-81
2021/08/18 07:57:37;;;;;;;;;3.60;3.60;35.20;21.40;;;;;;845788;23;6185;-82
2021/08/18 08:03:44;;;;;;;;;;;;;;;;;;;;;
2021/08/18 08:40:34;;;;;;;;;5.00;3.60;35.20;21.10;;;;;;863965;22;6239;-80
2021/08/18 08:40:55;;;;;;;;;5.33;4.00;35.20;21.10;;;;;;864232;22;5700;-80
2021/08/18 08:41:15;;;;;;;;;5.00;4.00;35.20;21.00;;;;;;863966;22;5897;-81
2021/08/18 08:41:49;;;;;;;;;3.00;3.00;35.20;21.00;;;;;;864267;22;6035;-81
2021/08/18 08:45:46;;;;;;;;;4.00;4.00;35.20;20.90;;;;;;864103;22;6006;-80
2021/08/18 08:46:07;;;;;;;;;3.00;3.00;35.20;21.00;;;;;;863919;22;5956;-81
2021/08/18 08:46:28;;;;;;;;;3.40;3.40;35.20;21.00;;;;;;864082;22;5879;-81
2021/08/18 08:46:50;;;;;;;;;3.50;3.50;35.20;21.00;;;;;;863989;22;5703;-81
2021/08/18 08:47:11;;;;;;;;;5.00;5.00;35.20;21.00;;;;;;864068;22;6749;-80
2021/08/18 09:11:33;;;;;;;;;3.80;3.80;35.00;21.00;;;;;;800464;24;7303;-81
2021/08/18 09:12:21;;;;;;;;;3.60;3.60;35.10;21.20;;;;;;800338;24;6310;-81
2021/08/18 09:12:42;;;;;;;;;4.60;3.60;35.10;21.10;;;;;;800275;24;6486;-81
2021/08/18 09:13:17;;;;;;;;;4.00;4.00;35.10;21.10;;;;;;800481;24;6043;-81
2021/08/18 09:13:51;;;;;;;;;3.50;3.50;35.10;21.10;;;;;;800151;24;8132;-81
2021/08/18 09:14:33;;;;;;;;;3.50;3.50;35.10;21.10;;;;;;800249;24;6673;-81